createdAt,value
2023-03-17T00:01:19.848Z,1.09
2023-03-17T00:04:25.407Z,0.96
2023-03-17T00:07:30.036Z,0.91
2023-03-17T00:10:33.260Z,0.89
2023-03-17T00:13:36.503Z,0.79
2023-03-17T00:16:42.289Z,1.50
2023-03-17T00:19:45.634Z,1.62
2023-03-17T00:22:51.057Z,1.22
2023-03-17T00:25:54.466Z,1.25
2023-03-17T00:28:57.922Z,1.70
2023-03-17T00:32:01.162Z,1.71
2023-03-17T00:35:06.117Z,1.93
2023-03-17T00:38:16.981Z,1.92
2023-03-17T00:41:20.192Z,1.88
2023-03-17T00:44:25.485Z,1.84
2023-03-17T00:47:28.988Z,1.97
2023-03-17T00:50:32.792Z,1.98
2023-03-17T00:53:40.556Z,1.75
2023-03-17T00:56:45.137Z,1.88
2023-03-17T00:59:48.438Z,1.92
2023-03-17T01:02:52.767Z,1.93
2023-03-17T01:05:57.989Z,1.56
2023-03-17T01:09:03.749Z,1.66
2023-03-17T01:12:08.188Z,1.91
2023-03-17T01:15:12.667Z,1.93
2023-03-17T01:18:18.239Z,2.00
2023-03-17T01:21:22.459Z,2.01
2023-03-17T01:24:28.480Z,2.15
2023-03-17T01:27:36.454Z,2.03
2023-03-17T01:30:41.395Z,1.66
2023-03-17T01:33:44.913Z,1.95
2023-03-17T01:36:48.525Z,1.77
2023-03-17T01:39:53.864Z,2.10
2023-03-17T01:43:04.256Z,1.88
2023-03-17T01:46:27.361Z,1.81
2023-03-17T01:49:35.612Z,1.84
2023-03-17T01:52:39.652Z,1.91
2023-03-17T01:55:47.048Z,1.85
2023-03-17T01:58:55.125Z,1.91
2023-03-17T02:02:00.664Z,1.83
2023-03-17T02:05:05.732Z,1.93
2023-03-17T02:08:12.762Z,2.11
2023-03-17T02:11:17.458Z,1.86
2023-03-17T02:14:20.652Z,1.85
2023-03-17T02:17:26.789Z,1.76
2023-03-17T02:21:10.420Z,1.44
2023-03-17T02:24:20.817Z,1.72
2023-03-17T02:27:31.121Z,1.85
2023-03-17T02:30:36.777Z,1.09
2023-03-17T02:33:40.113Z,1.29
2023-03-17T02:36:43.605Z,1.52
2023-03-17T02:39:48.351Z,1.21
2023-03-17T02:42:52.341Z,1.27
2023-03-17T02:45:55.558Z,1.47
2023-03-17T02:48:59.192Z,1.71
2023-03-17T02:52:02.553Z,1.62
2023-03-17T02:55:08.252Z,1.06
2023-03-17T02:58:11.807Z,0.92
2023-03-17T03:01:15.609Z,0.93
2023-03-17T03:04:20.092Z,0.89
2023-03-17T03:07:23.805Z,1.19
2023-03-17T03:10:28.618Z,1.48
2023-03-17T03:13:32.197Z,1.36
2023-03-17T03:16:35.988Z,1.25
2023-03-17T03:19:39.302Z,1.39
2023-03-17T03:22:42.587Z,0.99
2023-03-17T03:25:47.260Z,1.27
2023-03-17T03:28:50.571Z,1.32
2023-03-17T03:31:54.071Z,1.22
2023-03-17T03:34:57.963Z,1.32
2023-03-17T03:38:01.210Z,1.21
2023-03-17T03:41:06.317Z,1.21
2023-03-17T03:44:09.589Z,1.23
2023-03-17T03:47:13.163Z,1.10
2023-03-17T03:50:16.756Z,0.99
2023-03-17T03:53:20.169Z,0.82
2023-03-17T03:56:25.440Z,1.10
2023-03-17T03:59:29.307Z,1.10
2023-03-17T04:02:32.811Z,1.60
2023-03-17T04:05:36.033Z,0.44
2023-03-17T04:08:39.286Z,0.50
2023-03-17T04:11:43.833Z,1.04
2023-03-17T04:14:47.160Z,0.90
2023-03-17T04:17:50.342Z,0.98
2023-03-17T04:20:53.530Z,1.28
2023-03-17T04:23:56.712Z,0.93
2023-03-17T04:27:01.310Z,0.93
2023-03-17T04:30:05.231Z,0.62
2023-03-17T04:34:19.079Z,0.83
2023-03-17T04:37:22.617Z,0.89
2023-03-17T04:40:25.705Z,1.14
2023-03-17T04:43:28.878Z,1.31
2023-03-17T04:46:32.289Z,0.88
2023-03-17T04:49:36.926Z,0.78
2023-03-17T04:52:40.319Z,0.58
2023-03-17T04:55:43.549Z,0.22
2023-03-17T04:58:46.741Z,0.21
2023-03-17T05:01:49.921Z,0.14
2023-03-17T05:04:54.874Z,0.62
2023-03-17T05:07:58.065Z,0.40
2023-03-17T05:11:01.672Z,0.37
2023-03-17T05:14:04.861Z,0.70
2023-03-17T05:17:08.442Z,0.53
2023-03-17T05:20:14.393Z,0.53
2023-03-17T05:23:17.631Z,0.64
2023-03-17T05:26:21.141Z,0.57
2023-03-17T05:29:24.349Z,0.71
2023-03-17T05:32:27.577Z,0.50
2023-03-17T05:35:32.209Z,0.43
2023-03-17T05:38:35.372Z,0.68
2023-03-17T05:41:38.571Z,0.57
2023-03-17T05:44:41.690Z,0.67
2023-03-17T05:47:46.337Z,0.71
2023-03-17T05:50:50.860Z,0.77
2023-03-17T05:53:54.175Z,0.62
2023-03-17T05:56:57.407Z,0.81
2023-03-17T06:00:00.564Z,0.11
2023-03-17T06:03:03.954Z,-0.09
2023-03-17T06:06:09.237Z,0.45
2023-03-17T06:09:12.407Z,0.45
2023-03-17T06:12:15.654Z,0.58
2023-03-17T06:15:19.341Z,0.51
2023-03-17T06:18:22.610Z,0.97
2023-03-17T06:21:27.137Z,1.12
2023-03-17T06:24:30.467Z,1.14
2023-03-17T06:27:33.770Z,1.15
2023-03-17T06:30:40.556Z,1.36
2023-03-17T06:33:43.984Z,1.46
2023-03-17T06:36:49.220Z,1.58
2023-03-17T06:39:52.419Z,1.93
2023-03-17T06:42:55.588Z,1.68
2023-03-17T06:45:58.726Z,1.83
2023-03-17T06:49:03.343Z,1.78
2023-03-17T06:52:09.370Z,1.64
2023-03-17T06:55:12.644Z,1.85
2023-03-17T06:58:15.936Z,1.92
2023-03-17T07:01:19.119Z,2.11
2023-03-17T07:04:22.370Z,2.38
2023-03-17T07:07:27.589Z,2.14
2023-03-17T07:10:31.840Z,2.25
2023-03-17T07:13:37.360Z,2.73
2023-03-17T07:16:40.591Z,2.69
2023-03-17T07:19:43.899Z,3.21
2023-03-17T07:22:48.517Z,3.50
2023-03-17T07:25:52.555Z,4.05
2023-03-17T07:28:55.893Z,4.04
2023-03-17T07:31:59.083Z,4.49
2023-03-17T07:35:02.266Z,4.55
2023-03-17T07:38:07.018Z,4.70
2023-03-17T07:41:11.036Z,5.19
2023-03-17T07:44:14.646Z,5.45
2023-03-17T07:47:17.851Z,5.53
2023-03-17T07:50:22.704Z,5.80
2023-03-17T07:53:27.597Z,5.94
2023-03-17T07:56:31.834Z,5.93
2023-03-17T07:59:34.986Z,6.25
2023-03-17T08:02:38.455Z,6.19
2023-03-17T08:05:41.728Z,6.29
2023-03-17T08:08:47.047Z,6.52
2023-03-17T08:11:50.574Z,6.74
2023-03-17T08:14:55.330Z,6.75
2023-03-17T08:17:58.660Z,6.12
2023-03-17T08:21:01.976Z,6.27
2023-03-17T08:24:07.203Z,6.47
2023-03-17T08:27:10.452Z,7.19
2023-03-17T08:30:14.293Z,7.25
2023-03-17T08:33:17.731Z,7.32
2023-03-17T08:36:22.000Z,7.28
2023-03-17T08:39:26.629Z,7.32
2023-03-17T08:42:29.834Z,7.42
2023-03-17T08:45:33.259Z,7.51
2023-03-17T08:48:37.705Z,7.44
2023-03-17T08:51:41.830Z,7.91
2023-03-17T08:54:47.102Z,7.68
2023-03-17T08:57:50.223Z,7.96
2023-03-17T09:00:54.249Z,7.82
2023-03-17T09:03:57.506Z,8.00
2023-03-17T09:07:03.997Z,8.30
2023-03-17T09:10:10.760Z,8.21
2023-03-17T09:13:14.417Z,8.17
2023-03-17T09:16:18.253Z,8.55
2023-03-17T09:19:21.876Z,8.28
2023-03-17T09:22:25.172Z,8.29
2023-03-17T09:25:29.935Z,8.55
2023-03-17T09:28:33.199Z,8.92
2023-03-17T09:31:37.175Z,8.57
2023-03-17T09:34:40.409Z,8.72
2023-03-17T09:37:43.712Z,8.80
2023-03-17T09:40:54.272Z,8.98
2023-03-17T09:44:07.792Z,9.31
2023-03-17T09:47:27.122Z,9.11
2023-03-17T09:50:36.382Z,9.21
2023-03-17T09:53:48.856Z,9.28
2023-03-17T09:57:01.648Z,9.88
2023-03-17T10:00:07.826Z,9.96
2023-03-17T10:03:12.837Z,10.06
2023-03-17T10:06:35.908Z,10.38
2023-03-17T10:09:46.478Z,10.02
2023-03-17T10:12:57.794Z,10.41
2023-03-17T10:16:04.043Z,10.16
2023-03-17T10:19:18.290Z,10.00
2023-03-17T10:22:29.298Z,10.51
2023-03-17T10:25:34.272Z,10.18
2023-03-17T10:28:40.077Z,10.65
2023-03-17T10:34:19.029Z,11.21
2023-03-17T10:37:26.777Z,11.35
2023-03-17T10:40:32.604Z,11.13
2023-03-17T10:43:40.985Z,11.00
2023-03-17T10:46:54.005Z,11.08
2023-03-17T10:50:02.765Z,11.32
2023-03-17T10:53:09.477Z,11.96
2023-03-17T10:56:20.316Z,11.60
2023-03-17T11:02:45.403Z,11.50
2023-03-17T11:05:58.079Z,11.88
2023-03-17T11:09:09.255Z,12.23
2023-03-17T11:12:25.481Z,12.27
2023-03-17T11:15:34.726Z,12.13
2023-03-17T11:18:40.738Z,12.31
2023-03-17T11:21:54.369Z,12.68
2023-03-17T11:25:05.020Z,12.75
2023-03-17T11:28:19.768Z,12.89
2023-03-17T11:31:32.001Z,12.85
2023-03-17T11:34:56.784Z,13.09
2023-03-17T11:38:14.338Z,13.26
2023-03-17T11:41:36.313Z,13.27
2023-03-17T11:44:55.669Z,13.80
2023-03-17T11:48:11.456Z,13.90
2023-03-17T11:51:22.863Z,13.94
2023-03-17T11:54:38.537Z,14.22
2023-03-17T11:57:49.261Z,13.97
2023-03-17T12:00:57.914Z,14.13
2023-03-17T12:04:12.152Z,14.22
2023-03-17T12:07:21.800Z,14.82
2023-03-17T12:10:34.011Z,14.25
2023-03-17T12:13:42.998Z,14.95
2023-03-17T12:16:51.081Z,14.87
2023-03-17T12:20:06.680Z,15.11
2023-03-17T12:23:18.910Z,14.96
2023-03-17T12:26:34.148Z,14.56
2023-03-17T12:29:47.306Z,14.82
2023-03-17T12:33:00.203Z,14.98
2023-03-17T12:36:06.849Z,14.48
2023-03-17T12:39:14.431Z,14.86
2023-03-17T12:42:30.759Z,14.69
2023-03-17T12:46:02.953Z,14.32
2023-03-17T12:49:42.090Z,14.73
2023-03-17T12:53:10.247Z,14.70
2023-03-17T12:56:21.096Z,14.93
2023-03-17T12:59:27.042Z,14.94
2023-03-17T13:02:38.403Z,14.54
2023-03-17T13:05:48.066Z,14.74
2023-03-17T13:08:53.439Z,15.14
2023-03-17T13:11:56.961Z,15.26
2023-03-17T13:15:01.598Z,15.09
2023-03-17T13:18:44.952Z,14.90
2023-03-17T13:21:58.803Z,15.39
2023-03-17T13:25:17.117Z,15.43
2023-03-17T13:28:27.769Z,15.54
2023-03-17T13:31:37.626Z,15.50
2023-03-17T13:34:47.098Z,15.28
2023-03-17T13:38:08.089Z,15.31
2023-03-17T13:41:32.953Z,15.22
2023-03-17T13:44:51.762Z,15.26
2023-03-17T13:48:28.488Z,15.08
2023-03-17T13:51:34.424Z,15.11
2023-03-17T13:54:43.462Z,15.03
2023-03-17T13:57:56.984Z,15.43
2023-03-17T14:01:05.450Z,15.02
2023-03-17T14:04:20.390Z,15.46
2023-03-17T14:07:26.763Z,15.28
2023-03-17T14:10:33.170Z,15.12
2023-03-17T14:13:43.103Z,15.56
2023-03-17T14:16:53.294Z,15.04
2023-03-17T14:20:08.506Z,15.46
2023-03-17T14:23:12.318Z,15.33
2023-03-17T14:26:15.802Z,15.55
2023-03-17T14:29:22.549Z,15.14
2023-03-17T14:32:26.333Z,15.50
2023-03-17T14:35:37.374Z,15.51
2023-03-17T14:38:48.247Z,15.38
2023-03-17T14:42:02.637Z,15.71
2023-03-17T14:45:08.068Z,15.61
2023-03-17T14:48:15.696Z,15.67
2023-03-17T14:51:27.705Z,15.60
2023-03-17T14:54:34.346Z,15.60
2023-03-17T14:57:38.827Z,15.56
2023-03-17T15:00:46.735Z,15.64
2023-03-17T15:03:56.177Z,15.63
2023-03-17T15:07:02.636Z,14.81
2023-03-17T15:10:07.334Z,15.48
2023-03-17T15:13:13.726Z,15.49
2023-03-17T15:16:21.958Z,15.34
2023-03-17T15:19:28.980Z,15.62
2023-03-17T15:22:42.386Z,15.06
2023-03-17T15:25:48.515Z,15.17
2023-03-17T15:28:51.666Z,15.52
2023-03-17T15:32:00.929Z,15.19
2023-03-17T15:35:04.982Z,15.44
2023-03-17T15:38:12.686Z,15.34
2023-03-17T15:41:15.827Z,15.23
2023-03-17T15:44:18.924Z,15.26
2023-03-17T15:47:24.651Z,14.72
2023-03-17T15:50:31.161Z,15.12
2023-03-17T15:53:35.761Z,15.41
2023-03-17T15:56:39.674Z,15.26
2023-03-17T15:59:42.849Z,15.32
2023-03-17T16:02:47.788Z,15.09
2023-03-17T16:05:51.422Z,15.35
2023-03-17T16:08:56.513Z,15.27
2023-03-17T16:11:59.722Z,15.26
2023-03-17T16:15:10.367Z,15.12
2023-03-17T16:18:23.929Z,15.02
2023-03-17T16:21:27.713Z,14.97
2023-03-17T16:24:32.215Z,14.85
2023-03-17T16:27:35.318Z,14.89
2023-03-17T16:34:18.485Z,14.90
2023-03-17T16:37:21.761Z,14.67
2023-03-17T16:40:28.221Z,14.52
2023-03-17T16:43:35.511Z,14.53
2023-03-17T16:46:38.739Z,14.01
2023-03-17T16:49:43.647Z,14.00
2023-03-17T16:52:46.928Z,14.23
2023-03-17T16:55:51.487Z,14.20
2023-03-17T16:58:55.088Z,14.01
2023-03-17T17:01:58.477Z,13.93
2023-03-17T17:05:04.569Z,13.99
2023-03-17T17:08:08.279Z,13.92
2023-03-17T17:11:13.560Z,13.69
2023-03-17T17:14:17.007Z,13.62
2023-03-17T17:17:20.412Z,13.55
2023-03-17T17:20:28.639Z,13.41
2023-03-17T17:23:32.050Z,13.44
2023-03-17T17:26:35.263Z,13.26
2023-03-17T17:29:38.634Z,13.08
2023-03-17T17:32:42.161Z,13.21
2023-03-17T17:35:47.931Z,12.98
2023-03-17T17:38:51.724Z,12.98
2023-03-17T17:41:55.669Z,12.95
2023-03-17T17:44:58.807Z,12.87
2023-03-17T17:48:01.962Z,12.79
2023-03-17T17:51:06.909Z,12.72
2023-03-17T17:54:10.277Z,12.60
2023-03-17T17:57:13.825Z,11.98
2023-03-17T18:00:18.937Z,12.13
2023-03-17T18:03:25.113Z,12.05
2023-03-17T18:06:29.930Z,12.03
2023-03-17T18:09:35.633Z,11.68
2023-03-17T18:12:38.957Z,11.88
2023-03-17T18:15:42.341Z,11.56
2023-03-17T18:18:47.086Z,11.39
2023-03-17T18:21:51.699Z,11.34
2023-03-17T18:24:55.293Z,11.81
2023-03-17T18:28:00.812Z,11.83
2023-03-17T18:31:10.439Z,11.71
2023-03-17T18:34:19.047Z,11.31
2023-03-17T18:37:23.733Z,11.44
2023-03-17T18:40:27.530Z,11.62
2023-03-17T18:43:31.008Z,10.96
2023-03-17T18:46:34.223Z,10.98
2023-03-17T18:49:37.342Z,11.21
2023-03-17T18:52:43.894Z,11.05
2023-03-17T18:55:47.266Z,11.02
2023-03-17T18:58:50.847Z,10.73
2023-03-17T19:01:54.278Z,10.27
2023-03-17T19:04:57.427Z,10.57
2023-03-17T19:08:02.012Z,10.21
2023-03-17T19:11:06.663Z,10.48
2023-03-17T19:14:11.724Z,10.25
2023-03-17T19:17:14.920Z,10.04
2023-03-17T19:20:18.662Z,9.98
2023-03-17T19:23:23.631Z,9.96
2023-03-17T19:26:27.059Z,10.23
2023-03-17T19:29:30.391Z,10.21
2023-03-17T19:32:33.725Z,10.20
2023-03-17T19:35:36.948Z,9.85
2023-03-17T19:38:42.022Z,10.25
2023-03-17T19:41:47.355Z,9.53
2023-03-17T19:44:50.719Z,9.48
2023-03-17T19:47:54.266Z,9.28
2023-03-17T19:50:57.579Z,9.21
2023-03-17T19:54:02.594Z,9.10
2023-03-17T19:57:06.272Z,9.04
2023-03-17T20:00:11.768Z,8.94
2023-03-17T20:03:15.004Z,8.83
2023-03-17T20:06:18.391Z,8.66
2023-03-17T20:09:24.554Z,8.79
2023-03-17T20:12:27.994Z,8.53
2023-03-17T20:15:31.508Z,8.52
2023-03-17T20:18:35.056Z,8.75
2023-03-17T20:21:38.413Z,8.65
2023-03-17T20:24:43.462Z,8.88
2023-03-17T20:27:46.874Z,9.20
2023-03-17T20:30:50.523Z,8.75
2023-03-17T20:33:53.698Z,9.03
2023-03-17T20:36:56.877Z,8.46
2023-03-17T20:40:02.923Z,8.78
2023-03-17T20:43:06.656Z,8.77
2023-03-17T20:46:14.577Z,8.39
2023-03-17T20:49:17.985Z,8.62
2023-03-17T20:52:22.318Z,8.28
2023-03-17T20:55:27.401Z,8.51
2023-03-17T20:58:30.635Z,8.48
2023-03-17T21:01:36.725Z,8.43
2023-03-17T21:04:40.281Z,8.44
2023-03-17T21:07:43.473Z,8.26
2023-03-17T21:10:48.191Z,8.31
2023-03-17T21:13:51.840Z,8.21
2023-03-17T21:16:55.312Z,8.25
2023-03-17T21:19:58.931Z,7.79
2023-03-17T21:23:04.551Z,8.09
2023-03-17T21:26:10.113Z,8.17
2023-03-17T21:29:13.581Z,8.21
2023-03-17T21:32:16.739Z,8.17
2023-03-17T21:35:19.938Z,8.05
2023-03-17T21:38:23.097Z,8.07
2023-03-17T21:41:33.234Z,8.12
2023-03-17T21:44:36.406Z,7.94
2023-03-17T21:47:40.842Z,7.79
2023-03-17T21:50:44.247Z,7.72
2023-03-17T21:53:47.812Z,7.67
2023-03-17T21:56:52.698Z,7.63
2023-03-17T21:59:56.825Z,7.57
2023-03-17T22:03:01.460Z,7.56
2023-03-17T22:06:07.142Z,7.61
2023-03-17T22:09:10.908Z,7.21
2023-03-17T22:12:15.628Z,7.17
2023-03-17T22:15:19.774Z,6.79
2023-03-17T22:18:22.899Z,6.58
2023-03-17T22:21:26.049Z,6.63
2023-03-17T22:24:29.562Z,6.59
2023-03-17T22:27:34.577Z,6.45
2023-03-17T22:34:17.293Z,5.89
2023-03-17T22:37:20.901Z,5.81
2023-03-17T22:40:24.528Z,5.59
2023-03-17T22:43:28.570Z,5.12
2023-03-17T22:46:31.822Z,5.87
2023-03-17T22:49:36.653Z,5.60
2023-03-17T22:52:39.908Z,5.75
2023-03-17T22:55:43.521Z,5.75
2023-03-17T22:58:47.752Z,5.56
2023-03-17T23:01:50.970Z,5.37
2023-03-17T23:04:55.636Z,5.63
2023-03-17T23:07:58.782Z,5.41
2023-03-17T23:11:08.606Z,5.70
2023-03-17T23:14:13.119Z,5.62
2023-03-17T23:17:16.367Z,5.86
2023-03-17T23:20:21.167Z,6.01
2023-03-17T23:23:24.450Z,5.88
2023-03-17T23:26:27.805Z,6.21
2023-03-17T23:29:31.053Z,5.90
2023-03-17T23:32:34.757Z,5.66
2023-03-17T23:35:39.829Z,5.56
2023-03-17T23:38:43.977Z,5.58
2023-03-17T23:41:47.433Z,5.94
2023-03-17T23:44:51.583Z,5.44
2023-03-17T23:47:55.646Z,5.35
2023-03-17T23:51:01.027Z,5.88
2023-03-17T23:54:04.903Z,5.38
2023-03-17T23:57:08.333Z,5.33
